Time;durP1;ratioP1;P1;durP2;ratioP2;P2;SDS_P1;SDS_P2;PMS_P1;PMS_P2;Temp;Humidity;BMP_temperature;BMP_pressure;BME280_temperature;BME280_humidity;BME280_pressure;Samples;Min_cycle;Max_cycle;Signal;HPM_P1;HPM_P2
2021/07/31 00:01:08;;;;;;;169.55;106.22;;;;;;;;;;4139037;34;20127;-85
2021/07/31 00:03:37;;;;;;;143.70;99.07;;;;;;;;;;4131843;34;21014;-84
2021/07/31 00:06:26;;;;;;;133.75;94.53;;;;;;;;;;4128868;34;20148;-84
2021/07/31 00:08:55;;;;;;;148.45;94.43;;;;;;;;;;4130672;34;20148;-85
2021/07/31 00:11:23;;;;;;;139.05;94.18;;;;;;;;;;4130382;34;20799;-85
2021/07/31 00:13:52;;;;;;;142.02;100.53;;;;;;;;;;4132621;34;20104;-84
2021/07/31 00:16:21;;;;;;;128.87;97.57;;;;;;;;;;4124698;34;20073;-84
2021/07/31 00:18:51;;;;;;;130.32;98.25;;;;;;;;;;4130652;34;20040;-84
2021/07/31 00:21:22;;;;;;;122.97;98.12;;;;;;;;;;4131754;34;20122;-84
2021/07/31 00:23:51;;;;;;;140.52;101.82;;;;;;;;;;4129832;34;20099;-84
2021/07/31 00:26:20;;;;;;;138.80;99.07;;;;;;;;;;4129174;34;20375;-84
2021/07/31 00:28:49;;;;;;;171.60;106.00;;;;;;;;;;4132514;34;20049;-84
2021/07/31 00:31:17;;;;;;;176.02;108.10;;;;;;;;;;4133277;34;20053;-85
2021/07/31 00:33:46;;;;;;;176.45;108.75;;;;;;;;;;4132250;34;22272;-84
2021/07/31 00:36:15;;;;;;;173.43;106.75;;;;;;;;;;4128793;34;20144;-85
2021/07/31 00:38:43;;;;;;;156.65;103.85;;;;;;;;;;4131573;34;20044;-84
2021/07/31 00:41:11;;;;;;;147.82;102.15;;;;;;;;;;4136811;34;20053;-84
2021/07/31 00:43:40;;;;;;;156.50;101.25;;;;;;;;;;4138356;34;20057;-84
2021/07/31 00:46:09;;;;;;;153.82;101.15;;;;;;;;;;4135225;34;20169;-84
2021/07/31 00:48:38;;;;;;;146.87;100.30;;;;;;;;;;4138670;34;20115;-84
2021/07/31 00:51:07;;;;;;;153.50;99.55;;;;;;;;;;4134719;34;20095;-84
2021/07/31 00:53:35;;;;;;;149.93;103.68;;;;;;;;;;4131715;34;20069;-84
2021/07/31 00:56:05;;;;;;;140.90;102.93;;;;;;;;;;4126592;34;20103;-85
2021/07/31 00:58:35;;;;;;;186.25;130.18;;;;;;;;;;4132635;34;20052;-84
2021/07/31 01:01:03;;;;;;;187.10;130.52;;;;;;;;;;4135578;34;20049;-84
2021/07/31 01:03:32;;;;;;;160.18;117.53;;;;;;;;;;4149552;34;20106;-84
2021/07/31 01:06:02;;;;;;;168.13;110.25;;;;;;;;;;4148143;34;20167;-85
2021/07/31 01:08:30;;;;;;;158.02;101.78;;;;;;;;;;4148873;34;20113;-85
2021/07/31 01:11:00;;;;;;;165.27;103.95;;;;;;;;;;4146714;34;20122;-84
2021/07/31 01:13:30;;;;;;;166.45;105.12;;;;;;;;;;4146324;34;20107;-84
2021/07/31 01:16:00;;;;;;;170.93;103.55;;;;;;;;;;4141779;34;20492;-85
2021/07/31 01:18:28;;;;;;;163.65;101.65;;;;;;;;;;4148187;34;20103;-85
2021/07/31 01:20:58;;;;;;;164.05;104.60;;;;;;;;;;4145054;34;20116;-85
2021/07/31 01:23:28;;;;;;;140.65;93.82;;;;;;;;;;4147676;34;20445;-84
2021/07/31 01:25:57;;;;;;;150.02;94.22;;;;;;;;;;4146155;34;20121;-85
2021/07/31 01:28:26;;;;;;;141.45;93.22;;;;;;;;;;4149042;34;20070;-84
2021/07/31 01:30:55;;;;;;;130.52;100.60;;;;;;;;;;4144780;34;20201;-84
2021/07/31 01:33:24;;;;;;;141.68;104.47;;;;;;;;;;4141677;34;20104;-85
2021/07/31 01:35:53;;;;;;;140.68;106.20;;;;;;;;;;4138679;34;20238;-85
2021/07/31 01:38:24;;;;;;;139.25;107.03;;;;;;;;;;4142281;34;20044;-84
2021/07/31 01:40:52;;;;;;;148.43;108.95;;;;;;;;;;4141127;34;20108;-85
2021/07/31 01:43:21;;;;;;;146.02;99.85;;;;;;;;;;4138765;34;20142;-84
2021/07/31 01:45:50;;;;;;;166.45;114.25;;;;;;;;;;4140171;34;20044;-84
2021/07/31 01:48:19;;;;;;;172.20;114.80;;;;;;;;;;4137233;34;20048;-85
2021/07/31 01:50:49;;;;;;;166.15;114.20;;;;;;;;;;4142151;34;20315;-85
2021/07/31 01:53:18;;;;;;;167.10;114.78;;;;;;;;;;4139524;34;20524;-85
2021/07/31 01:55:46;;;;;;;168.23;114.15;;;;;;;;;;4137014;34;20056;-84
2021/07/31 01:58:15;;;;;;;160.12;116.28;;;;;;;;;;4143835;34;20056;-85
2021/07/31 02:00:44;;;;;;;151.30;101.45;;;;;;;;;;4145591;34;20509;-84
2021/07/31 02:03:24;;;;;;;143.73;101.60;;;;;;;;;;4132190;34;20414;-84
2021/07/31 02:05:58;;;;;;;146.68;99.93;;;;;;;;;;4132243;34;20114;-84
2021/07/31 02:08:29;;;;;;;147.98;109.10;;;;;;;;;;4132749;34;20542;-84
2021/07/31 02:10:58;;;;;;;139.05;107.15;;;;;;;;;;4128411;34;20096;-85
2021/07/31 02:13:27;;;;;;;147.43;107.25;;;;;;;;;;4130614;34;20572;-85
2021/07/31 02:15:56;;;;;;;128.77;103.30;;;;;;;;;;4130092;34;20076;-84
2021/07/31 02:18:25;;;;;;;130.23;105.30;;;;;;;;;;4128129;34;20048;-85
2021/07/31 02:20:54;;;;;;;171.32;115.65;;;;;;;;;;4126078;34;20052;-85
2021/07/31 02:23:24;;;;;;;148.77;101.12;;;;;;;;;;4132893;34;20053;-84
2021/07/31 02:25:57;;;;;;;145.68;100.38;;;;;;;;;;4127700;34;20541;-85
2021/07/31 02:28:40;;;;;;;152.10;100.97;;;;;;;;;;4129177;34;20110;-84
2021/07/31 02:31:12;;;;;;;146.75;99.20;;;;;;;;;;4128861;34;20488;-85
2021/07/31 02:33:42;;;;;;;138.52;97.28;;;;;;;;;;4124271;34;20259;-85
2021/07/31 02:36:11;;;;;;;152.07;99.03;;;;;;;;;;4126909;34;20086;-85
2021/07/31 02:38:40;;;;;;;176.98;118.20;;;;;;;;;;4124157;34;20044;-84
2021/07/31 02:41:08;;;;;;;178.70;119.57;;;;;;;;;;4122816;34;20571;-85
2021/07/31 02:43:37;;;;;;;173.43;119.03;;;;;;;;;;4129423;34;21413;-84
2021/07/31 02:46:07;;;;;;;134.48;103.22;;;;;;;;;;4127256;34;20053;-84
2021/07/31 02:48:38;;;;;;;133.12;108.57;;;;;;;;;;4120973;34;20139;-84
2021/07/31 02:51:08;;;;;;;125.47;107.53;;;;;;;;;;4126028;34;20092;-84
2021/07/31 02:53:38;;;;;;;129.87;107.70;;;;;;;;;;4128115;34;20134;-84
2021/07/31 02:56:07;;;;;;;134.52;106.47;;;;;;;;;;4130457;34;20072;-84
2021/07/31 02:58:36;;;;;;;177.85;116.53;;;;;;;;;;4134585;34;20503;-85
2021/07/31 03:01:08;;;;;;;170.27;115.53;;;;;;;;;;4131752;34;20103;-85
2021/07/31 03:03:37;;;;;;;168.52;114.03;;;;;;;;;;4139160;34;20083;-85
2021/07/31 03:06:08;;;;;;;146.40;97.12;;;;;;;;;;4140545;34;20660;-84
2021/07/31 03:08:36;;;;;;;140.15;96.43;;;;;;;;;;4148834;34;20051;-84
2021/07/31 07:54:49;;;;;;;233.05;171.07;;;;;;;;;;4176824;28;20171;-85
2021/07/31 07:57:18;;;;;;;208.32;140.62;;;;;;;;;;4110694;34;20057;-84
2021/07/31 07:59:47;;;;;;;199.62;141.10;;;;;;;;;;4118749;34;20086;-84
2021/07/31 08:02:15;;;;;;;186.37;137.43;;;;;;;;;;4125917;34;20104;-84
2021/07/31 08:04:47;;;;;;;199.98;131.55;;;;;;;;;;4126378;34;20535;-84
2021/07/31 08:07:15;;;;;;;262.20;181.30;;;;;;;;;;4133451;34;20121;-84
2021/07/31 08:09:44;;;;;;;229.63;180.12;;;;;;;;;;4121384;34;20130;-85
2021/07/31 08:12:12;;;;;;;249.48;163.43;;;;;;;;;;4120358;34;20424;-84
2021/07/31 08:14:41;;;;;;;245.37;160.45;;;;;;;;;;4123891;34;20673;-84
2021/07/31 08:17:10;;;;;;;243.23;145.98;;;;;;;;;;4128388;34;20107;-85
2021/07/31 08:19:38;;;;;;;240.90;147.20;;;;;;;;;;4142119;34;20801;-84
2021/07/31 08:22:06;;;;;;;245.55;161.73;;;;;;;;;;4140617;34;20175;-84
2021/07/31 08:24:35;;;;;;;215.93;119.75;;;;;;;;;;4148382;34;20116;-84
2021/07/31 08:27:04;;;;;;;216.32;164.32;;;;;;;;;;4135120;34;20068;-84
2021/07/31 08:29:32;;;;;;;176.77;145.20;;;;;;;;;;4131120;34;20036;-84
2021/07/31 08:32:01;;;;;;;186.07;158.77;;;;;;;;;;4145099;34;20180;-84
2021/07/31 08:34:29;;;;;;;194.02;168.35;;;;;;;;;;4148044;34;20122;-83
2021/07/31 08:37:04;;;;;;;197.95;162.50;;;;;;;;;;4139001;34;20485;-84
2021/07/31 08:39:33;;;;;;;180.70;152.62;;;;;;;;;;4147694;34;20527;-84
2021/07/31 08:42:01;;;;;;;194.93;172.85;;;;;;;;;;4144205;34;20044;-83
2021/07/31 08:44:29;;;;;;;220.70;196.63;;;;;;;;;;4130040;34;20053;-85
2021/07/31 08:46:58;;;;;;;208.07;185.68;;;;;;;;;;4135432;34;20157;-84
2021/07/31 08:49:27;;;;;;;213.23;190.27;;;;;;;;;;4125430;34;20083;-85
2021/07/31 08:51:57;;;;;;;250.07;225.00;;;;;;;;;;4125684;34;20135;-84
2021/07/31 08:54:25;;;;;;;244.07;220.02;;;;;;;;;;4125310;34;20545;-85
2021/07/31 08:56:54;;;;;;;217.70;196.87;;;;;;;;;;4131540;34;20041;-84
2021/07/31 08:59:26;;;;;;;181.18;138.75;;;;;;;;;;4138801;34;20231;-84
2021/07/31 09:01:56;;;;;;;68.82;61.65;;;;;;;;;;4143756;34;20142;-84
2021/07/31 09:04:25;;;;;;;49.78;44.20;;;;;;;;;;4138925;34;20081;-85
2021/07/31 09:06:53;;;;;;;45.80;36.35;;;;;;;;;;4138788;34;20142;-84
2021/07/31 09:09:26;;;;;;;17.58;15.77;;;;;;;;;;4146810;34;20507;-84
2021/07/31 09:12:05;;;;;;;12.35;6.00;;;;;;;;;;4138666;34;20217;-85
2021/07/31 09:14:35;;;;;;;13.95;3.22;;;;;;;;;;4142947;34;20065;-85
2021/07/31 09:17:04;;;;;;;15.43;2.85;;;;;;;;;;4141348;34;20074;-84
2021/07/31 09:19:33;;;;;;;13.05;2.62;;;;;;;;;;4143079;34;20072;-84
2021/07/31 09:22:07;;;;;;;12.50;2.55;;;;;;;;;;4138311;34;20108;-85
2021/07/31 09:24:36;;;;;;;11.27;2.53;;;;;;;;;;4147816;34;20088;-84
2021/07/31 09:27:23;;;;;;;12.50;2.17;;;;;;;;;;4141378;34;20059;-85
2021/07/31 09:30:04;;;;;;;20.17;2.47;;;;;;;;;;4150513;34;20127;-85
2021/07/31 09:32:37;;;;;;;11.40;2.87;;;;;;;;;;4145862;34;20116;-84
2021/07/31 09:35:22;;;;;;;8.68;2.20;;;;;;;;;;4145401;34;20159;-84
2021/07/31 09:37:52;;;;;;;15.20;2.03;;;;;;;;;;4142508;34;20511;-84
2021/07/31 09:40:31;;;;;;;9.85;2.40;;;;;;;;;;4145201;34;20199;-84
2021/07/31 09:43:13;;;;;;;12.40;1.98;;;;;;;;;;4142510;34;20131;-84
2021/07/31 09:45:42;;;;;;;12.50;2.12;;;;;;;;;;4147723;34;20040;-85
2021/07/31 09:48:11;;;;;;;12.90;2.62;;;;;;;;;;4145305;34;20098;-85
2021/07/31 09:50:43;;;;;;;8.98;2.10;;;;;;;;;;4143588;34;20060;-85
2021/07/31 09:53:13;;;;;;;10.07;2.20;;;;;;;;;;4140995;34;20075;-85
2021/07/31 09:55:49;;;;;;;8.25;2.50;;;;;;;;;;4146201;34;20494;-85
2021/07/31 09:58:18;;;;;;;15.00;3.23;;;;;;;;;;4146866;34;20048;-85
2021/07/31 10:00:52;;;;;;;9.25;2.92;;;;;;;;;;4139730;34;20098;-85
2021/07/31 10:03:21;;;;;;;10.90;2.33;;;;;;;;;;4141820;34;20083;-85
2021/07/31 10:05:50;;;;;;;10.38;2.33;;;;;;;;;;4141982;34;20469;-84
2021/07/31 10:08:37;;;;;;;9.77;2.40;;;;;;;;;;4151534;34;20494;-85
2021/07/31 10:11:06;;;;;;;12.00;2.65;;;;;;;;;;4147034;34;20823;-85
2021/07/31 10:13:38;;;;;;;10.82;2.50;;;;;;;;;;4155325;34;20056;-85
2021/07/31 10:16:07;;;;;;;8.98;2.10;;;;;;;;;;4156804;34;20114;-85
2021/07/31 10:18:36;;;;;;;11.90;2.70;;;;;;;;;;4153675;34;20095;-84
2021/07/31 10:21:09;;;;;;;23.12;3.22;;;;;;;;;;4153060;34;20191;-84
2021/07/31 10:24:04;;;;;;;10.32;2.30;;;;;;;;;;4152072;34;20048;-85
2021/07/31 10:26:34;;;;;;;13.45;2.72;;;;;;;;;;4144814;34;20106;-84
2021/07/31 10:29:22;;;;;;;12.65;2.35;;;;;;;;;;4139393;34;20069;-84
2021/07/31 10:31:50;;;;;;;10.45;2.10;;;;;;;;;;4153312;34;20052;-85
2021/07/31 10:34:56;;;;;;;9.63;1.95;;;;;;;;;;4150327;34;20040;-85
2021/07/31 10:37:31;;;;;;;11.38;2.30;;;;;;;;;;4139103;34;20060;-85
2021/07/31 10:40:05;;;;;;;11.90;2.50;;;;;;;;;;4153821;34;20118;-84
2021/07/31 10:42:51;;;;;;;10.93;2.50;;;;;;;;;;4153228;34;20508;-85
2021/07/31 10:45:22;;;;;;;9.38;2.22;;;;;;;;;;4155232;34;20542;-85
2021/07/31 10:47:51;;;;;;;9.38;2.37;;;;;;;;;;4150403;34;20515;-85
2021/07/31 10:50:23;;;;;;;14.48;2.55;;;;;;;;;;4155534;34;20395;-85
2021/07/31 10:52:56;;;;;;;9.20;2.33;;;;;;;;;;4152934;34;20160;-84
2021/07/31 10:55:25;;;;;;;9.75;2.12;;;;;;;;;;4155508;34;20424;-85
2021/07/31 10:57:53;;;;;;;12.52;2.12;;;;;;;;;;4151793;34;20060;-85
2021/07/31 11:00:37;;;;;;;12.48;2.65;;;;;;;;;;4155013;34;20070;-85
2021/07/31 11:03:20;;;;;;;12.48;2.40;;;;;;;;;;4154965;34;20067;-85
2021/07/31 11:05:49;;;;;;;7.50;2.00;;;;;;;;;;4154249;34;20090;-85
2021/07/31 11:08:18;;;;;;;11.12;2.37;;;;;;;;;;4131598;34;20074;-85
2021/07/31 11:10:51;;;;;;;13.68;2.40;;;;;;;;;;4149240;34;20092;-85
2021/07/31 11:13:19;;;;;;;10.75;2.40;;;;;;;;;;4155136;34;20056;-85
2021/07/31 11:16:00;;;;;;;16.48;2.37;;;;;;;;;;4150457;34;20114;-85
2021/07/31 11:18:35;;;;;;;15.18;2.62;;;;;;;;;;4145005;34;20056;-85
2021/07/31 11:21:13;;;;;;;8.60;2.30;;;;;;;;;;4151893;34;20040;-85
2021/07/31 11:23:44;;;;;;;9.75;1.90;;;;;;;;;;4151608;34;20497;-85
2021/07/31 11:26:13;;;;;;;16.48;2.67;;;;;;;;;;4152134;34;20456;-85
2021/07/31 11:28:41;;;;;;;9.55;2.22;;;;;;;;;;4150891;34;20633;-85
2021/07/31 11:31:17;;;;;;;11.50;2.42;;;;;;;;;;4148777;34;20803;-85
2021/07/31 11:34:12;;;;;;;11.55;2.45;;;;;;;;;;4151954;34;20057;-85
2021/07/31 11:36:42;;;;;;;15.68;2.60;;;;;;;;;;4149697;34;20105;-85
2021/07/31 11:39:11;;;;;;;8.20;2.58;;;;;;;;;;4155360;34;20082;-85
2021/07/31 11:41:43;;;;;;;11.12;2.75;;;;;;;;;;4150705;34;20336;-85
2021/07/31 11:44:22;;;;;;;7.03;2.25;;;;;;;;;;4153578;34;20045;-85
2021/07/31 11:46:51;;;;;;;10.90;2.33;;;;;;;;;;4130346;34;20061;-85
2021/07/31 11:49:32;;;;;;;10.02;2.35;;;;;;;;;;4143242;34;20108;-85
2021/07/31 11:52:02;;;;;;;11.27;2.72;;;;;;;;;;4152831;34;20142;-85
2021/07/31 11:54:32;;;;;;;13.07;2.67;;;;;;;;;;4151936;34;20040;-85
2021/07/31 11:57:01;;;;;;;10.63;2.40;;;;;;;;;;4151766;34;20049;-85
2021/07/31 11:59:33;;;;;;;9.60;2.22;;;;;;;;;;4154672;34;20474;-85
2021/07/31 12:02:03;;;;;;;13.90;2.80;;;;;;;;;;4153696;34;20121;-85
2021/07/31 12:04:45;;;;;;;11.55;2.28;;;;;;;;;;4155561;34;20068;-85
2021/07/31 12:07:13;;;;;;;13.27;2.72;;;;;;;;;;4152179;34;20102;-85
2021/07/31 12:09:43;;;;;;;12.13;2.50;;;;;;;;;;4151693;34;20626;-85
2021/07/31 12:12:31;;;;;;;8.75;2.35;;;;;;;;;;4151539;34;20056;-86
2021/07/31 12:15:09;;;;;;;9.02;2.08;;;;;;;;;;4154450;34;20045;-85
2021/07/31 12:17:38;;;;;;;11.73;2.40;;;;;;;;;;4153183;34;20098;-85
2021/07/31 12:20:08;;;;;;;13.30;2.87;;;;;;;;;;4154668;34;20144;-85
2021/07/31 12:22:50;;;;;;;13.30;2.70;;;;;;;;;;4150079;34;20111;-85
2021/07/31 12:25:20;;;;;;;9.48;2.62;;;;;;;;;;4154853;34;20072;-85
2021/07/31 12:28:21;;;;;;;14.18;2.60;;;;;;;;;;4151101;34;20064;-85
2021/07/31 12:30:49;;;;;;;10.85;2.67;;;;;;;;;;4136601;34;20040;-85
2021/07/31 12:33:21;;;;;;;12.70;2.62;;;;;;;;;;4151655;34;20676;-85
2021/07/31 12:35:56;;;;;;;13.98;3.00;;;;;;;;;;4150167;34;20105;-85
2021/07/31 12:38:25;;;;;;;10.18;2.55;;;;;;;;;;4142202;34;20144;-85
2021/07/31 12:40:55;;;;;;;12.05;2.58;;;;;;;;;;4136077;34;20196;-85
2021/07/31 12:43:25;;;;;;;8.20;2.42;;;;;;;;;;4140871;34;20049;-85
2021/07/31 12:45:55;;;;;;;12.13;2.10;;;;;;;;;;4142407;34;20142;-85
2021/07/31 12:48:23;;;;;;;15.32;2.53;;;;;;;;;;4155993;34;20116;-85
2021/07/31 12:50:52;;;;;;;14.68;2.45;;;;;;;;;;4150223;34;20410;-85
2021/07/31 12:53:24;;;;;;;19.87;3.47;;;;;;;;;;4153938;34;20048;-85
2021/07/31 12:55:53;;;;;;;15.63;3.03;;;;;;;;;;4139079;34;20070;-85
2021/07/31 12:58:23;;;;;;;11.10;2.95;;;;;;;;;;4148769;34;20121;-85
2021/07/31 13:00:51;;;;;;;12.88;2.75;;;;;;;;;;4148147;34;20052;-85
2021/07/31 13:03:21;;;;;;;11.73;2.62;;;;;;;;;;4151899;34;20495;-85
2021/07/31 13:05:50;;;;;;;15.95;3.20;;;;;;;;;;4149306;34;20128;-85
2021/07/31 13:08:18;;;;;;;12.60;3.28;;;;;;;;;;4149963;34;20141;-85
2021/07/31 13:10:49;;;;;;;12.32;2.40;;;;;;;;;;4140889;34;20096;-85
2021/07/31 13:13:22;;;;;;;11.52;2.30;;;;;;;;;;4146779;34;20104;-85
2021/07/31 13:15:50;;;;;;;14.13;2.47;;;;;;;;;;4143827;34;20071;-85
2021/07/31 13:18:22;;;;;;;10.52;2.22;;;;;;;;;;4146845;34;20064;-84
2021/07/31 13:20:50;;;;;;;14.07;2.70;;;;;;;;;;4144238;34;20088;-85
2021/07/31 13:23:20;;;;;;;9.15;2.42;;;;;;;;;;4146051;34;20075;-85
2021/07/31 13:25:48;;;;;;;16.50;3.10;;;;;;;;;;4145579;34;20167;-84
2021/07/31 13:28:17;;;;;;;29.67;4.32;;;;;;;;;;4146584;34;20112;-85
2021/07/31 13:30:45;;;;;;;14.45;3.00;;;;;;;;;;4145186;34;20084;-85
2021/07/31 13:33:14;;;;;;;12.65;3.05;;;;;;;;;;4150875;34;20040;-85
2021/07/31 13:35:44;;;;;;;14.68;2.90;;;;;;;;;;4143407;34;20144;-85
2021/07/31 13:38:17;;;;;;;9.65;2.25;;;;;;;;;;4144670;34;20075;-85
2021/07/31 13:40:54;;;;;;;11.55;2.53;;;;;;;;;;4143754;34;20076;-85
2021/07/31 13:43:23;;;;;;;11.27;2.35;;;;;;;;;;4142015;34;20566;-85
2021/07/31 13:45:52;;;;;;;16.45;3.00;;;;;;;;;;4154816;34;20087;-85
2021/07/31 13:48:20;;;;;;;13.23;2.72;;;;;;;;;;4148166;34;20751;-85
2021/07/31 13:50:49;;;;;;;9.32;2.40;;;;;;;;;;4147716;34;20180;-85
2021/07/31 13:53:17;;;;;;;16.02;2.40;;;;;;;;;;4156196;34;20409;-84
2021/07/31 13:55:46;;;;;;;18.67;2.33;;;;;;;;;;4156827;34;20476;-85
2021/07/31 13:58:15;;;;;;;12.82;2.80;;;;;;;;;;4152998;34;20082;-85
2021/07/31 14:00:44;;;;;;;10.40;2.03;;;;;;;;;;4149632;34;20530;-85
2021/07/31 14:03:14;;;;;;;18.87;3.35;;;;;;;;;;4158304;34;20222;-85
2021/07/31 14:05:42;;;;;;;14.55;2.80;;;;;;;;;;4158373;34;20104;-85
2021/07/31 14:08:11;;;;;;;15.00;2.85;;;;;;;;;;4153526;34;20123;-85
2021/07/31 14:10:39;;;;;;;11.77;2.40;;;;;;;;;;4153285;34;20064;-85
2021/07/31 14:13:08;;;;;;;12.00;2.65;;;;;;;;;;4153896;34;20088;-85
2021/07/31 14:15:37;;;;;;;19.55;2.83;;;;;;;;;;4152155;34;20416;-85
2021/07/31 14:18:06;;;;;;;11.45;2.17;;;;;;;;;;4152625;34;20449;-85
2021/07/31 14:20:35;;;;;;;11.32;1.90;;;;;;;;;;4150965;34;20483;-85
2021/07/31 14:23:03;;;;;;;15.60;2.92;;;;;;;;;;4150982;34;20072;-85
2021/07/31 14:25:32;;;;;;;9.27;2.30;;;;;;;;;;4151808;34;20130;-85
2021/07/31 14:28:00;;;;;;;11.95;2.83;;;;;;;;;;4148839;34;20117;-85
2021/07/31 14:30:29;;;;;;;14.70;3.53;;;;;;;;;;4152067;34;20096;-85
2021/07/31 14:32:57;;;;;;;14.20;3.00;;;;;;;;;;4149964;34;20074;-85
2021/07/31 14:35:26;;;;;;;16.70;2.33;;;;;;;;;;4142682;34;20092;-85
2021/07/31 14:37:55;;;;;;;15.27;2.58;;;;;;;;;;4150864;34;20135;-85
2021/07/31 14:40:24;;;;;;;13.55;2.35;;;;;;;;;;4151311;34;20533;-85
2021/07/31 14:42:53;;;;;;;10.40;2.33;;;;;;;;;;4137870;34;20060;-84
2021/07/31 14:45:22;;;;;;;13.02;2.58;;;;;;;;;;4155431;34;20122;-85
2021/07/31 14:47:50;;;;;;;7.25;2.17;;;;;;;;;;4154117;34;20040;-83
2021/07/31 14:50:19;;;;;;;17.17;3.08;;;;;;;;;;4148530;34;20583;-84
2021/07/31 14:52:48;;;;;;;11.45;2.17;;;;;;;;;;4154989;34;20064;-85
2021/07/31 14:55:16;;;;;;;14.50;2.92;;;;;;;;;;4151870;34;20115;-85
2021/07/31 14:57:45;;;;;;;18.23;3.10;;;;;;;;;;4147727;34;20615;-84
2021/07/31 15:00:15;;;;;;;12.52;2.80;;;;;;;;;;4149013;34;20452;-84
2021/07/31 15:02:44;;;;;;;11.00;2.85;;;;;;;;;;4149502;34;20056;-85
2021/07/31 15:05:12;;;;;;;15.15;2.45;;;;;;;;;;4153840;34;20059;-85
2021/07/31 15:07:41;;;;;;;18.37;3.25;;;;;;;;;;4148142;34;20116;-85
2021/07/31 15:10:10;;;;;;;10.55;2.53;;;;;;;;;;4151141;34;20099;-84
2021/07/31 15:12:38;;;;;;;12.48;2.70;;;;;;;;;;4152346;34;20045;-85
2021/07/31 15:15:10;;;;;;;15.18;2.80;;;;;;;;;;4138284;34;20084;-84
2021/07/31 15:17:39;;;;;;;16.23;2.95;;;;;;;;;;4151681;34;20125;-85
2021/07/31 15:20:07;;;;;;;16.10;2.42;;;;;;;;;;4151353;34;20478;-84
2021/07/31 15:22:37;;;;;;;13.50;2.58;;;;;;;;;;4150097;34;20049;-86
2021/07/31 15:25:07;;;;;;;11.65;2.80;;;;;;;;;;4155313;34;20151;-85
2021/07/31 15:27:36;;;;;;;11.05;2.47;;;;;;;;;;4152461;34;20067;-85
2021/07/31 15:30:04;;;;;;;8.85;2.28;;;;;;;;;;4153654;34;20184;-85
2021/07/31 15:32:34;;;;;;;9.70;2.33;;;;;;;;;;4152744;34;20518;-84
2021/07/31 15:35:03;;;;;;;14.35;2.87;;;;;;;;;;4151349;34;20116;-84
2021/07/31 15:37:32;;;;;;;13.10;2.45;;;;;;;;;;4150174;34;20074;-83
2021/07/31 15:40:00;;;;;;;18.60;3.03;;;;;;;;;;4150972;34;20071;-84
2021/07/31 15:42:30;;;;;;;17.55;3.05;;;;;;;;;;4153349;34;20036;-84
2021/07/31 15:45:01;;;;;;;12.20;2.67;;;;;;;;;;4149069;34;20458;-85
2021/07/31 15:47:30;;;;;;;16.33;2.87;;;;;;;;;;4151069;34;20060;-84
2021/07/31 15:49:58;;;;;;;12.52;2.53;;;;;;;;;;4152389;34;20102;-84
2021/07/31 15:52:27;;;;;;;9.48;2.17;;;;;;;;;;4152421;34;20045;-85
2021/07/31 15:54:55;;;;;;;10.23;2.70;;;;;;;;;;4148595;34;20065;-85
2021/07/31 15:57:24;;;;;;;13.48;3.12;;;;;;;;;;4147603;34;20083;-85
2021/07/31 15:59:52;;;;;;;13.75;2.78;;;;;;;;;;4147362;34;20085;-84
2021/07/31 16:02:21;;;;;;;21.90;4.03;;;;;;;;;;4143327;34;20077;-84
2021/07/31 16:04:50;;;;;;;13.15;2.75;;;;;;;;;;4149526;34;20419;-85
2021/07/31 16:07:18;;;;;;;14.43;2.70;;;;;;;;;;4147976;34;20067;-84
2021/07/31 16:09:47;;;;;;;9.82;3.17;;;;;;;;;;4148698;34;20052;-84
2021/07/31 16:12:15;;;;;;;13.00;2.90;;;;;;;;;;4144708;34;20053;-85
2021/07/31 16:14:44;;;;;;;16.02;3.08;;;;;;;;;;4146982;34;20075;-84
2021/07/31 16:17:12;;;;;;;11.82;2.95;;;;;;;;;;4144972;34;20048;-84
2021/07/31 16:19:41;;;;;;;13.52;3.03;;;;;;;;;;4144231;34;20102;-84
2021/07/31 16:22:10;;;;;;;15.02;3.00;;;;;;;;;;4143171;34;20400;-84
2021/07/31 16:24:38;;;;;;;12.93;2.70;;;;;;;;;;4143596;34;20216;-84
2021/07/31 16:27:07;;;;;;;13.85;3.12;;;;;;;;;;4144517;34;20052;-85
2021/07/31 16:29:35;;;;;;;16.52;3.53;;;;;;;;;;4146522;34;20060;-84
2021/07/31 16:32:04;;;;;;;13.95;3.22;;;;;;;;;;4139709;34;20053;-84
2021/07/31 16:34:33;;;;;;;17.87;3.47;;;;;;;;;;4150585;34;20071;-85
2021/07/31 16:37:01;;;;;;;15.20;3.25;;;;;;;;;;4140325;34;20075;-84
2021/07/31 16:39:30;;;;;;;15.82;3.40;;;;;;;;;;4147736;34;20112;-84
2021/07/31 16:41:59;;;;;;;20.52;3.80;;;;;;;;;;4144341;34;20061;-84
2021/07/31 16:44:27;;;;;;;10.50;2.53;;;;;;;;;;4151442;34;20044;-85
2021/07/31 16:46:55;;;;;;;17.60;3.37;;;;;;;;;;4144096;34;20044;-85
2021/07/31 16:49:24;;;;;;;14.32;3.15;;;;;;;;;;4149655;34;20048;-84
2021/07/31 16:51:53;;;;;;;11.90;2.85;;;;;;;;;;4144906;34;20048;-84
2021/07/31 16:54:21;;;;;;;10.93;2.78;;;;;;;;;;4151745;34;20214;-85
2021/07/31 16:56:50;;;;;;;16.95;3.22;;;;;;;;;;4141245;34;20930;-84
2021/07/31 16:59:19;;;;;;;12.10;2.70;;;;;;;;;;4141937;34;20064;-84
2021/07/31 17:01:47;;;;;;;12.75;3.28;;;;;;;;;;4143840;34;20048;-84
2021/07/31 17:04:20;;;;;;;10.73;2.78;;;;;;;;;;4143746;34;20355;-85
2021/07/31 17:06:49;;;;;;;19.80;3.78;;;;;;;;;;4138536;34;20122;-85
2021/07/31 17:09:17;;;;;;;19.12;3.58;;;;;;;;;;4142720;34;20049;-84
2021/07/31 17:11:46;;;;;;;24.65;6.70;;;;;;;;;;4146214;34;20044;-84
2021/07/31 17:14:15;;;;;;;19.52;4.07;;;;;;;;;;4145877;34;20780;-84
2021/07/31 17:16:43;;;;;;;18.42;5.85;;;;;;;;;;4138129;34;20106;-84
2021/07/31 17:19:14;;;;;;;16.87;9.52;;;;;;;;;;4138527;34;20087;-84
2021/07/31 17:21:43;;;;;;;18.23;7.50;;;;;;;;;;4136445;34;20111;-85
2021/07/31 17:24:12;;;;;;;18.60;14.45;;;;;;;;;;4137582;34;20135;-84
2021/07/31 17:26:40;;;;;;;22.13;16.60;;;;;;;;;;4140870;34;20068;-85
2021/07/31 17:29:10;;;;;;;17.23;13.85;;;;;;;;;;4139151;34;20457;-84
2021/07/31 17:31:39;;;;;;;52.25;48.13;;;;;;;;;;4141786;34;20387;-84
2021/07/31 17:34:07;;;;;;;61.58;57.17;;;;;;;;;;4136710;34;20331;-84
2021/07/31 17:36:38;;;;;;;42.38;38.83;;;;;;;;;;4137232;34;20102;-84
2021/07/31 17:39:07;;;;;;;31.50;28.35;;;;;;;;;;4139319;34;20049;-84
2021/07/31 17:41:36;;;;;;;39.42;35.38;;;;;;;;;;4138045;34;20048;-85
2021/07/31 17:44:04;;;;;;;50.12;37.10;;;;;;;;;;4141606;34;20447;-85
2021/07/31 17:46:33;;;;;;;61.17;56.63;;;;;;;;;;4141631;34;20052;-85
2021/07/31 17:49:06;;;;;;;49.95;46.40;;;;;;;;;;4143558;34;20114;-85
2021/07/31 17:51:35;;;;;;;33.10;30.55;;;;;;;;;;4140030;34;20118;-85
2021/07/31 17:54:04;;;;;;;39.08;36.20;;;;;;;;;;4141490;34;20053;-85
2021/07/31 17:56:34;;;;;;;39.60;36.10;;;;;;;;;;4141088;34;20040;-85
2021/07/31 17:59:03;;;;;;;38.38;34.83;;;;;;;;;;4135608;34;20373;-85
2021/07/31 18:01:32;;;;;;;48.38;44.35;;;;;;;;;;4138866;34;20499;-85
2021/07/31 18:04:01;;;;;;;43.08;39.28;;;;;;;;;;4136300;34;20138;-85
2021/07/31 18:06:30;;;;;;;44.47;40.08;;;;;;;;;;4142886;34;20569;-85
2021/07/31 18:08:58;;;;;;;52.90;46.42;;;;;;;;;;4137948;34;20601;-86
2021/07/31 18:11:27;;;;;;;58.53;49.35;;;;;;;;;;4136483;34;20107;-86
2021/07/31 18:13:56;;;;;;;93.50;82.78;;;;;;;;;;4139128;34;20141;-85
2021/07/31 18:16:29;;;;;;;128.82;107.80;;;;;;;;;;4139174;34;20048;-85
2021/07/31 18:18:57;;;;;;;173.13;126.72;;;;;;;;;;4135605;34;20048;-86
2021/07/31 18:21:26;;;;;;;178.43;130.57;;;;;;;;;;4143982;34;20109;-85
2021/07/31 18:23:54;;;;;;;202.87;139.57;;;;;;;;;;4138764;34;20114;-85
2021/07/31 18:26:23;;;;;;;208.05;136.52;;;;;;;;;;4134879;34;20052;-85
2021/07/31 18:28:52;;;;;;;242.90;144.18;;;;;;;;;;4135436;34;20084;-85
2021/07/31 18:31:21;;;;;;;251.15;146.98;;;;;;;;;;4139279;34;20132;-86
2021/07/31 18:33:51;;;;;;;283.20;159.00;;;;;;;;;;4135611;34;20092;-86
2021/07/31 18:36:19;;;;;;;296.75;165.10;;;;;;;;;;4139848;34;20075;-85
2021/07/31 18:38:49;;;;;;;217.82;189.30;;;;;;;;;;4137588;34;20471;-85
2021/07/31 18:41:17;;;;;;;224.37;192.48;;;;;;;;;;4143730;34;20479;-85
2021/07/31 18:43:45;;;;;;;222.07;197.50;;;;;;;;;;4140384;34;20084;-85
2021/07/31 18:46:14;;;;;;;234.98;187.12;;;;;;;;;;4141313;34;20392;-85
2021/07/31 18:48:42;;;;;;;238.35;188.20;;;;;;;;;;4138178;34;20185;-86
2021/07/31 18:51:11;;;;;;;306.65;203.02;;;;;;;;;;4140420;34;20438;-85
2021/07/31 18:53:40;;;;;;;293.00;182.68;;;;;;;;;;4144049;34;20103;-85
2021/07/31 18:56:08;;;;;;;326.00;189.68;;;;;;;;;;4140376;34;20052;-85
2021/07/31 18:58:37;;;;;;;317.87;193.13;;;;;;;;;;4140240;34;20448;-85
2021/07/31 19:01:05;;;;;;;334.55;197.70;;;;;;;;;;4149689;34;20328;-85
2021/07/31 19:03:34;;;;;;;327.95;205.80;;;;;;;;;;4139077;34;20165;-86
2021/07/31 19:06:02;;;;;;;314.92;200.48;;;;;;;;;;4134734;34;20129;-86
2021/07/31 19:08:31;;;;;;;345.42;216.65;;;;;;;;;;4152539;34;20061;-86
2021/07/31 19:11:00;;;;;;;351.33;203.40;;;;;;;;;;4135718;34;20570;-85
2021/07/31 19:13:29;;;;;;;360.38;210.18;;;;;;;;;;4133325;34;20127;-86
2021/07/31 19:15:58;;;;;;;232.40;187.95;;;;;;;;;;4138786;34;20150;-85
2021/07/31 19:18:27;;;;;;;246.27;165.27;;;;;;;;;;4140176;34;20087;-86